Time;durP1;ratioP1;P1;durP2;ratioP2;P2;SDS_P1;SDS_P2;PMS_P1;PMS_P2;Temp;Humidity;BMP_temperature;BMP_pressure;BME280_temperature;BME280_humidity;BME280_pressure;Samples;Min_cycle;Max_cycle;Signal;HPM_P1;HPM_P2
2022/04/07 00:00:50;;;;;;;9.65;2.35;;;9.60;99.90;;;;;;5129643;27;20043;-79
2022/04/07 00:03:15;;;;;;;7.90;3.03;;;9.60;99.90;;;;;;5095888;27;20041;-79
2022/04/07 00:05:41;;;;;;;11.85;2.90;;;9.60;99.90;;;;;;5093434;27;20417;-79
2022/04/07 00:08:07;;;;;;;7.63;2.25;;;9.80;99.90;;;;;;5113459;27;20043;-79
2022/04/07 00:10:36;;;;;;;9.57;2.33;;;9.60;99.90;;;;;;5128997;27;20118;-79
2022/04/07 00:13:03;;;;;;;10.70;1.83;;;9.60;99.90;;;;;;5111967;27;20046;-79
2022/04/07 00:15:30;;;;;;;11.73;1.88;;;9.60;99.90;;;;;;5094041;27;20501;-79
2022/04/07 00:17:57;;;;;;;11.20;2.10;;;9.60;99.90;;;;;;5129409;27;20483;-79
2022/04/07 00:20:23;;;;;;;11.07;2.13;;;9.60;99.90;;;;;;5112361;27;20088;-79
2022/04/07 00:22:50;;;;;;;10.60;1.73;;;9.60;99.90;;;;;;5128869;27;20067;-80
2022/04/07 00:25:16;;;;;;;7.38;1.90;;;9.60;99.90;;;;;;5131619;27;20062;-80
2022/04/07 00:27:42;;;;;;;6.90;1.33;;;9.70;99.90;;;;;;5128758;27;20074;-80
2022/04/07 00:30:13;;;;;;;8.18;1.27;;;9.60;99.90;;;;;;5111843;27;20039;-79
2022/04/07 00:32:42;;;;;;;9.63;1.65;;;9.50;99.90;;;;;;5112220;27;20043;-79
2022/04/07 00:35:09;;;;;;;3.90;1.60;;;10.00;99.90;;;;;;5129182;27;20058;-79
2022/04/07 00:37:35;;;;;;;4.75;1.02;;;10.40;99.90;;;;;;5094813;27;20043;-79
2022/04/07 00:40:01;;;;;;;5.13;0.98;;;9.50;99.90;;;;;;5128333;27;20047;-79
2022/04/07 00:42:26;;;;;;;3.47;1.00;;;9.50;99.90;;;;;;5112376;27;20046;-79
2022/04/07 00:44:52;;;;;;;8.95;0.90;;;9.80;99.90;;;;;;5110217;27;20043;-79
2022/04/07 00:47:19;;;;;;;15.23;1.65;;;9.40;99.90;;;;;;5111816;27;20122;-79
2022/04/07 00:49:45;;;;;;;7.40;1.27;;;9.40;99.90;;;;;;5129583;27;20039;-79
2022/04/07 00:52:12;;;;;;;9.07;1.38;;;9.50;99.90;;;;;;5110907;27;20043;-79
2022/04/07 00:54:39;;;;;;;6.10;1.13;;;9.40;99.90;;;;;;5130351;27;20063;-80
2022/04/07 00:57:06;;;;;;;14.57;1.35;;;9.40;99.90;;;;;;5108228;28;20130;-79
2022/04/07 00:59:34;;;;;;;12.00;1.60;;;9.40;99.90;;;;;;5093826;28;20054;-80
2022/04/07 01:02:00;;;;;;;10.75;1.50;;;9.50;99.90;;;;;;5126762;28;20051;-80
2022/04/07 01:04:26;;;;;;;11.05;1.67;;;9.90;99.90;;;;;;5109864;28;20574;-80
2022/04/07 01:06:52;;;;;;;7.05;1.70;;;9.40;99.90;;;;;;5109569;28;20038;-78
2022/04/07 01:09:19;;;;;;;8.52;1.55;;;9.40;99.90;;;;;;5108666;28;20490;-78
2022/04/07 01:11:46;;;;;;;8.60;1.55;;;9.40;99.90;;;;;;5110459;28;20039;-79
2022/04/07 01:14:12;;;;;;;12.65;1.55;;;10.70;99.90;;;;;;5126597;28;20050;-77
2022/04/07 01:16:38;;;;;;;7.43;1.33;;;9.40;99.90;;;;;;5111171;28;20700;-79
2022/04/07 01:19:05;;;;;;;14.27;2.33;;;9.40;99.90;;;;;;5108249;28;20039;-79
2022/04/07 01:21:34;;;;;;;16.75;1.90;;;9.40;99.90;;;;;;5128173;28;20087;-80
2022/04/07 01:24:11;;;;;;;15.10;1.48;;;10.50;99.90;;;;;;5128133;28;20530;-80
2022/04/07 01:26:42;;;;;;;11.35;1.77;;;9.80;99.90;;;;;;5091583;28;20051;-80
2022/04/07 01:29:13;;;;;;;8.70;1.10;;;8.90;99.90;;;;;;5110458;28;20039;-80
2022/04/07 01:31:39;;;;;;;8.02;1.42;;;9.30;99.90;;;;;;5107785;28;20039;-80
2022/04/07 01:34:09;;;;;;;9.00;1.77;;;9.30;99.90;;;;;;5109823;28;20043;-81
2022/04/07 01:36:39;;;;;;;7.43;2.10;;;9.20;99.90;;;;;;5109533;28;20043;-81
2022/04/07 01:39:07;;;;;;;11.00;1.38;;;9.20;99.90;;;;;;5128023;28;20104;-81
2022/04/07 01:41:38;;;;;;;13.93;1.42;;;9.10;99.90;;;;;;5110276;28;20114;-81
2022/04/07 01:44:05;;;;;;;8.52;1.10;;;9.00;99.90;;;;;;5091286;28;20489;-81
2022/04/07 01:46:34;;;;;;;4.40;0.93;;;9.00;99.90;;;;;;5128894;28;20402;-79
2022/04/07 01:49:01;;;;;;;11.73;1.58;;;9.00;99.90;;;;;;5108167;28;20047;-80
2022/04/07 01:51:28;;;;;;;6.72;1.50;;;9.00;99.90;;;;;;5128124;28;20046;-79
2022/04/07 01:53:54;;;;;;;13.52;1.40;;;9.00;99.90;;;;;;5127854;28;20043;-79
2022/04/07 01:56:21;;;;;;;9.85;1.60;;;8.90;99.90;;;;;;5068510;27;1136054;-79
2022/04/07 01:58:48;;;;;;;11.85;2.80;;;9.00;99.90;;;;;;5111513;27;20395;-79
2022/04/07 02:01:17;;;;;;;15.20;1.73;;;9.20;99.90;;;;;;5127237;27;20043;-80
2022/04/07 02:03:45;;;;;;;8.15;2.15;;;9.10;99.90;;;;;;5111246;27;20079;-79
2022/04/07 02:16:22;;;;;;;9.63;1.90;;;9.10;99.90;;;;;;5073352;28;20494;-79
2022/04/07 02:18:48;;;;;;;9.57;2.47;;;9.10;99.90;;;;;;5057519;28;20044;-79
2022/04/07 02:21:14;;;;;;;14.10;3.22;;;9.10;99.90;;;;;;5073271;28;20414;-79
2022/04/07 02:23:42;;;;;;;14.82;3.22;;;9.10;99.90;;;;;;5074022;28;20518;-79
2022/04/07 02:26:12;;;;;;;16.67;1.95;;;9.20;99.90;;;;;;5057506;28;20071;-79
2022/04/07 02:28:39;;;;;;;19.77;2.05;;;9.10;99.90;;;;;;5073741;28;20052;-79
2022/04/07 02:31:06;;;;;;;10.60;2.55;;;9.20;99.90;;;;;;5057602;28;20126;-79
2022/04/07 02:33:34;;;;;;;18.73;2.42;;;9.20;99.90;;;;;;5072740;28;20044;-79
2022/04/07 02:36:00;;;;;;;12.85;1.75;;;9.20;99.90;;;;;;5092349;28;20052;-80
2022/04/07 02:38:26;;;;;;;15.43;2.00;;;9.50;99.90;;;;;;5091098;28;20439;-79
2022/04/07 02:40:52;;;;;;;20.52;2.45;;;9.20;99.90;;;;;;5074133;28;20075;-79
2022/04/07 02:43:18;;;;;;;10.05;1.45;;;9.20;99.90;;;;;;5091276;28;20121;-79
2022/04/07 02:45:43;;;;;;;19.20;3.08;;;9.20;99.90;;;;;;5091458;28;20039;-79
2022/04/07 02:48:09;;;;;;;13.93;3.10;;;9.20;99.90;;;;;;5073979;28;20500;-78
2022/04/07 02:50:35;;;;;;;17.70;2.35;;;9.60;99.90;;;;;;5072406;28;20039;-79
2022/04/07 02:53:00;;;;;;;13.48;2.50;;;9.20;99.90;;;;;;5040703;28;20119;-79
2022/04/07 02:55:27;;;;;;;18.73;1.88;;;9.20;99.90;;;;;;5072469;28;20121;-79
2022/04/07 02:57:53;;;;;;;14.60;1.90;;;9.20;99.90;;;;;;5056851;28;20071;-79
2022/04/07 03:00:19;;;;;;;15.63;2.63;;;9.20;99.90;;;;;;5039871;28;20040;-78
2022/04/07 03:02:45;;;;;;;21.08;3.38;;;9.20;99.90;;;;;;5091110;28;20067;-78
2022/04/07 03:05:11;;;;;;;13.88;2.40;;;9.30;99.90;;;;;;5073555;28;20387;-78
2022/04/07 03:07:36;;;;;;;11.77;1.85;;;9.20;99.90;;;;;;5090591;28;20048;-78
2022/04/07 03:10:04;;;;;;;16.05;2.25;;;10.30;99.90;;;;;;5091118;28;20056;-78
2022/04/07 03:12:30;;;;;;;10.75;2.15;;;9.20;99.90;;;;;;5038340;28;20067;-79
2022/04/07 03:14:56;;;;;;;12.25;2.03;;;9.80;99.90;;;;;;5090652;28;20125;-78
2022/04/07 03:17:21;;;;;;;13.88;2.67;;;9.20;99.90;;;;;;5071634;28;20055;-79
2022/04/07 03:19:47;;;;;;;14.43;3.15;;;9.20;99.90;;;;;;5089900;28;20567;-78
2022/04/07 03:22:15;;;;;;;7.78;1.95;;;9.20;99.90;;;;;;5071929;28;20048;-79
2022/04/07 03:24:41;;;;;;;15.43;2.60;;;9.20;99.90;;;;;;5088975;28;20044;-79
2022/04/07 03:27:07;;;;;;;16.80;2.60;;;9.20;99.90;;;;;;5090309;28;20052;-78
2022/04/07 03:29:34;;;;;;;13.07;2.70;;;9.10;99.90;;;;;;5088520;28;20206;-78
2022/04/07 03:32:00;;;;;;;13.15;2.40;;;9.20;99.90;;;;;;5090173;28;20458;-79
2022/04/07 03:34:26;;;;;;;14.88;2.40;;;9.20;99.90;;;;;;5089239;28;20075;-79
2022/04/07 03:36:51;;;;;;;13.05;3.58;;;10.20;99.90;;;;;;5071255;28;20046;-79
2022/04/07 03:39:17;;;;;;;16.13;3.03;;;9.20;99.90;;;;;;5090313;28;20084;-79
2022/04/07 03:41:43;;;;;;;14.82;2.67;;;9.20;99.90;;;;;;5088401;28;20071;-80
2022/04/07 03:44:10;;;;;;;8.77;2.65;;;9.30;99.90;;;;;;5071665;28;20521;-79
2022/04/07 03:46:37;;;;;;;15.35;2.45;;;9.20;99.90;;;;;;5087987;28;20048;-79
2022/04/07 03:49:03;;;;;;;16.73;2.30;;;9.20;99.90;;;;;;5090173;28;20036;-79
2022/04/07 03:51:28;;;;;;;13.52;2.60;;;9.20;99.90;;;;;;5070535;28;20044;-79
2022/04/07 03:53:54;;;;;;;11.45;1.88;;;9.20;99.90;;;;;;5089671;28;20457;-79
2022/04/07 03:56:21;;;;;;;7.28;1.58;;;9.20;99.90;;;;;;5090130;28;20036;-79
2022/04/07 03:58:46;;;;;;;11.30;1.88;;;9.20;99.90;;;;;;5088701;28;20044;-80
2022/04/07 04:01:13;;;;;;;16.98;2.15;;;9.30;99.90;;;;;;5089831;28;20422;-78
2022/04/07 04:03:39;;;;;;;13.15;2.60;;;9.30;99.90;;;;;;5070182;28;20119;-79
2022/04/07 04:06:05;;;;;;;15.57;2.13;;;9.40;99.90;;;;;;5090134;28;20616;-79
2022/04/07 04:08:31;;;;;;;15.93;1.98;;;9.30;99.90;;;;;;5088922;28;20080;-79
2022/04/07 04:10:57;;;;;;;24.52;2.60;;;9.30;99.90;;;;;;5067668;28;20195;-81
2022/04/07 04:13:22;;;;;;;13.77;1.92;;;9.30;99.90;;;;;;5069802;28;20047;-79
2022/04/07 04:15:48;;;;;;;16.92;2.50;;;9.30;99.90;;;;;;5068415;28;20047;-80
2022/04/07 04:18:14;;;;;;;15.30;2.42;;;9.20;99.90;;;;;;5068219;28;20482;-80
2022/04/07 04:20:40;;;;;;;18.88;2.67;;;9.20;99.90;;;;;;5066510;28;20083;-80
2022/04/07 04:23:06;;;;;;;11.55;2.08;;;9.20;99.90;;;;;;5069693;28;20045;-80
2022/04/07 04:25:31;;;;;;;18.83;2.30;;;9.70;99.90;;;;;;5050484;28;20047;-80
2022/04/07 04:27:57;;;;;;;20.52;3.08;;;9.20;99.90;;;;;;5051034;28;20116;-80
2022/04/07 04:30:23;;;;;;;15.30;2.42;;;9.20;99.90;;;;;;5067743;28;20048;-78
2022/04/07 04:32:49;;;;;;;19.70;3.08;;;9.20;99.90;;;;;;5067109;28;20041;-81
2022/04/07 04:35:14;;;;;;;17.70;2.35;;;9.10;99.90;;;;;;5055163;28;20486;-79
2022/04/07 04:37:40;;;;;;;18.05;2.53;;;9.20;99.90;;;;;;5070273;28;20132;-78
2022/04/07 04:40:07;;;;;;;10.25;2.10;;;9.10;99.90;;;;;;5055952;28;20047;-79
2022/04/07 04:42:32;;;;;;;17.40;2.65;;;9.10;99.90;;;;;;5070585;28;20040;-80
2022/04/07 04:44:58;;;;;;;17.25;2.47;;;9.10;99.90;;;;;;5072839;28;20455;-79
2022/04/07 04:47:24;;;;;;;14.48;2.17;;;9.10;99.90;;;;;;5071031;28;20053;-78
2022/04/07 04:49:50;;;;;;;18.80;2.67;;;9.10;99.90;;;;;;5071394;28;20049;-79
2022/04/07 04:52:16;;;;;;;15.70;2.17;;;9.10;99.90;;;;;;5071257;28;20045;-80
2022/04/07 04:54:41;;;;;;;22.27;2.58;;;9.20;99.90;;;;;;5071345;28;20052;-78
2022/04/07 04:57:07;;;;;;;11.75;2.70;;;9.10;99.90;;;;;;5071289;28;20037;-78
2022/04/07 04:59:33;;;;;;;12.43;2.78;;;9.10;99.90;;;;;;5071343;28;20032;-78
2022/04/07 05:01:59;;;;;;;26.15;3.20;;;9.10;99.90;;;;;;5072506;28;20174;-81
2022/04/07 05:04:25;;;;;;;16.80;2.85;;;9.10;99.90;;;;;;5072463;28;20111;-81
2022/04/07 05:06:50;;;;;;;14.77;3.10;;;9.10;99.90;;;;;;5071478;28;20539;-79
2022/04/07 05:09:16;;;;;;;20.30;3.40;;;9.00;99.90;;;;;;5054199;28;20057;-79
2022/04/07 05:11:42;;;;;;;10.80;2.70;;;9.00;99.90;;;;;;5070667;28;20145;-80
2022/04/07 05:14:07;;;;;;;20.20;3.30;;;9.00;99.90;;;;;;5071243;28;20048;-79
2022/04/07 05:16:33;;;;;;;22.17;3.30;;;9.00;99.90;;;;;;5070972;28;20063;-81
2022/04/07 05:18:59;;;;;;;18.50;2.42;;;8.90;99.90;;;;;;5072094;28;20072;-81
2022/04/07 05:21:24;;;;;;;13.40;2.50;;;9.10;99.90;;;;;;5071490;28;20044;-85
2022/04/07 05:23:50;;;;;;;13.27;2.30;;;9.60;99.90;;;;;;5071676;28;20064;-79
2022/04/07 05:26:16;;;;;;;14.40;1.70;;;9.00;99.90;;;;;;5072090;28;20403;-79
2022/04/07 05:28:42;;;;;;;5.82;0.90;;;8.70;99.90;;;;;;5070888;28;20083;-83
2022/04/07 05:31:09;;;;;;;5.38;0.70;;;8.60;99.90;;;;;;5072422;28;20098;-80
2022/04/07 05:33:34;;;;;;;2.63;0.70;;;8.40;99.90;;;;;;5070611;28;20049;-79
2022/04/07 05:36:00;;;;;;;7.70;1.00;;;8.90;99.90;;;;;;5072236;28;20429;-79
2022/04/07 05:38:26;;;;;;;5.05;0.63;;;8.20;99.90;;;;;;5069903;28;20131;-78
2022/04/07 05:40:52;;;;;;;6.43;1.02;;;7.60;99.90;;;;;;5071150;28;20563;-79
2022/04/07 05:43:17;;;;;;;5.15;0.77;;;7.40;99.90;;;;;;5072007;28;20048;-80
2022/04/07 05:45:45;;;;;;;5.00;0.77;;;7.30;99.90;;;;;;5069433;28;20048;-78
2022/04/07 05:48:14;;;;;;;5.25;0.88;;;7.10;99.90;;;;;;5053620;28;20097;-79
2022/04/07 05:50:40;;;;;;;6.10;1.00;;;7.10;99.90;;;;;;5070559;28;20040;-79
2022/04/07 05:53:06;;;;;;;8.43;0.85;;;7.70;99.90;;;;;;5071603;28;20398;-77
2022/04/07 05:55:33;;;;;;;10.02;2.10;;;7.00;99.90;;;;;;5069933;28;20037;-77
2022/04/07 05:58:07;;;;;;;11.20;1.65;;;7.00;99.90;;;;;;5071067;28;20490;-76
2022/04/07 06:00:33;;;;;;;9.18;1.20;;;7.00;99.90;;;;;;5071796;28;20059;-77
2022/04/07 06:02:59;;;;;;;11.45;1.23;;;7.00;99.90;;;;;;5070250;28;20134;-77
2022/04/07 06:05:26;;;;;;;7.70;0.85;;;6.90;99.90;;;;;;5071331;28;20103;-76
2022/04/07 06:08:00;;;;;;;4.50;0.80;;;7.00;99.90;;;;;;5068868;28;20036;-78
2022/04/07 06:10:26;;;;;;;4.15;0.90;;;6.90;99.90;;;;;;5086617;28;20552;-77
2022/04/07 06:12:52;;;;;;;5.85;1.30;;;6.80;99.90;;;;;;5072897;28;20051;-77
2022/04/07 06:15:18;;;;;;;8.43;1.20;;;6.80;99.90;;;;;;5090486;28;20040;-77
2022/04/07 06:17:44;;;;;;;5.65;0.90;;;6.70;99.90;;;;;;5091787;28;20478;-76
2022/04/07 06:20:12;;;;;;;5.35;0.65;;;6.60;99.90;;;;;;5071429;28;20048;-76
2022/04/07 06:22:39;;;;;;;7.25;0.68;;;6.60;99.90;;;;;;5091898;28;20047;-77
2022/04/07 06:25:05;;;;;;;7.40;0.73;;;6.50;99.90;;;;;;5071836;28;20487;-76
2022/04/07 06:27:39;;;;;;;5.15;0.70;;;6.40;99.90;;;;;;5091309;28;20036;-76
2022/04/07 06:30:07;;;;;;;5.07;0.47;;;6.30;99.90;;;;;;5090849;28;20042;-75
2022/04/07 06:32:33;;;;;;;4.18;0.57;;;6.30;99.90;;;;;;5071996;28;20048;-75
2022/04/07 06:34:59;;;;;;;4.40;0.65;;;6.30;99.90;;;;;;5091486;28;20036;-76
2022/04/07 06:37:25;;;;;;;3.78;0.50;;;6.20;99.90;;;;;;5089790;28;20126;-76
2022/04/07 06:39:51;;;;;;;3.03;0.38;;;6.20;99.90;;;;;;5091086;28;20046;-76
2022/04/07 06:42:16;;;;;;;2.30;0.43;;;6.20;99.90;;;;;;5089924;28;20036;-76
2022/04/07 06:44:42;;;;;;;1.38;0.52;;;6.20;99.90;;;;;;5091028;28;20051;-75
2022/04/07 06:47:08;;;;;;;2.20;0.30;;;6.10;99.90;;;;;;5090752;28;20036;-74
2022/04/07 06:49:33;;;;;;;2.65;0.50;;;6.10;99.90;;;;;;5089425;28;20351;-76
2022/04/07 06:51:59;;;;;;;2.58;0.45;;;6.20;99.90;;;;;;5090955;28;20077;-76
2022/04/07 06:54:25;;;;;;;3.53;0.45;;;6.20;99.90;;;;;;5089419;28;20036;-76
2022/04/07 06:56:50;;;;;;;4.45;0.70;;;6.20;99.90;;;;;;5090526;28;20127;-75
2022/04/07 06:59:16;;;;;;;3.08;0.60;;;6.20;99.90;;;;;;5089660;28;20044;-75
2022/04/07 07:01:42;;;;;;;0.55;0.30;;;6.20;99.90;;;;;;5090781;28;20040;-76
2022/04/07 07:04:07;;;;;;;4.28;0.55;;;6.40;99.90;;;;;;5090422;28;20044;-76
2022/04/07 07:06:33;;;;;;;2.97;0.68;;;6.20;99.90;;;;;;5089580;28;20173;-76
2022/04/07 07:08:59;;;;;;;1.75;0.30;;;6.30;99.90;;;;;;5090338;28;20056;-76
2022/04/07 07:11:24;;;;;;;3.03;0.50;;;6.30;99.90;;;;;;5088741;28;20060;-76
2022/04/07 07:13:50;;;;;;;6.15;0.70;;;6.30;99.90;;;;;;5090794;28;20043;-76
2022/04/07 07:16:16;;;;;;;3.30;0.50;;;7.40;99.90;;;;;;5089122;28;20097;-76
2022/04/07 07:18:42;;;;;;;4.35;0.80;;;6.30;99.90;;;;;;5090521;28;20036;-76
2022/04/07 07:21:08;;;;;;;2.78;0.35;;;6.40;99.90;;;;;;5090100;28;20105;-76
2022/04/07 07:23:34;;;;;;;4.10;0.40;;;6.40;99.90;;;;;;5089450;28;20847;-76
2022/04/07 07:26:00;;;;;;;2.42;0.40;;;6.40;99.90;;;;;;5090447;28;20043;-76
2022/04/07 07:28:25;;;;;;;2.80;0.50;;;6.50;99.90;;;;;;5089157;28;20039;-77
2022/04/07 07:30:51;;;;;;;2.00;0.40;;;6.50;99.90;;;;;;5090402;28;20043;-76
2022/04/07 07:33:17;;;;;;;8.23;0.65;;;6.50;99.90;;;;;;5089455;28;20390;-76
2022/04/07 07:35:45;;;;;;;1.35;0.40;;;6.50;99.90;;;;;;5090712;28;20533;-77
2022/04/07 07:38:11;;;;;;;2.17;0.50;;;6.50;99.90;;;;;;5089984;28;20041;-77
2022/04/07 07:40:38;;;;;;;3.72;0.70;;;6.60;99.90;;;;;;5071201;28;20205;-76
2022/04/07 07:43:04;;;;;;;3.05;0.40;;;6.60;99.90;;;;;;5089975;28;20081;-76
2022/04/07 07:45:34;;;;;;;2.65;0.40;;;6.60;99.90;;;;;;5088982;28;20123;-77
2022/04/07 07:48:00;;;;;;;3.83;1.08;;;6.60;99.90;;;;;;5090444;28;20047;-75
2022/04/07 07:50:26;;;;;;;3.03;0.70;;;6.60;99.90;;;;;;5088969;28;20044;-75
2022/04/07 07:52:51;;;;;;;3.08;0.43;;;6.60;99.90;;;;;;5089822;28;20036;-76
2022/04/07 07:55:17;;;;;;;0.65;0.30;;;6.60;99.90;;;;;;5089762;28;20123;-76
2022/04/07 07:57:43;;;;;;;2.45;0.47;;;6.70;99.90;;;;;;5089317;28;20036;-76
2022/04/07 08:00:11;;;;;;;4.13;0.70;;;6.70;99.90;;;;;;5090112;28;20482;-76
2022/04/07 08:02:38;;;;;;;6.18;0.45;;;6.70;99.90;;;;;;5088964;28;20067;-76
2022/04/07 08:05:07;;;;;;;4.15;0.60;;;6.80;99.90;;;;;;5090120;28;20044;-76
2022/04/07 08:07:37;;;;;;;6.22;0.55;;;7.00;99.90;;;;;;5070623;28;20048;-76
2022/04/07 08:10:03;;;;;;;4.38;0.57;;;7.20;99.90;;;;;;5093004;28;20059;-76
2022/04/07 08:12:29;;;;;;;9.15;0.57;;;7.40;99.90;;;;;;5092051;28;20044;-76
2022/04/07 08:14:55;;;;;;;5.82;0.47;;;7.50;99.90;;;;;;5092110;28;20123;-75
2022/04/07 08:17:21;;;;;;;1.45;0.40;;;7.50;99.90;;;;;;5091852;28;20032;-76
2022/04/07 08:19:47;;;;;;;5.68;0.50;;;7.50;99.90;;;;;;5091328;28;20086;-75
2022/04/07 08:22:13;;;;;;;7.13;0.93;;;7.80;99.90;;;;;;5091794;28;20067;-76
2022/04/07 08:24:39;;;;;;;2.17;0.50;;;7.80;99.90;;;;;;5091686;28;20051;-76
2022/04/07 08:27:06;;;;;;;2.95;0.85;;;8.30;99.90;;;;;;5091968;28;20050;-75
2022/04/07 08:29:32;;;;;;;3.63;0.50;;;8.10;99.90;;;;;;5073551;28;20036;-76
2022/04/07 08:31:58;;;;;;;3.75;0.38;;;8.10;99.90;;;;;;5091995;28;20095;-76
2022/04/07 08:34:25;;;;;;;5.90;1.17;;;8.20;99.90;;;;;;5091525;28;20494;-76
2022/04/07 08:36:52;;;;;;;2.10;0.35;;;8.40;99.90;;;;;;5091335;28;20086;-76
2022/04/07 08:39:18;;;;;;;5.45;0.50;;;8.50;99.90;;;;;;5091989;28;20091;-76
2022/04/07 08:41:45;;;;;;;6.35;0.57;;;8.60;99.90;;;;;;5091205;28;20044;-76
2022/04/07 08:44:12;;;;;;;0.88;0.20;;;8.80;99.90;;;;;;5073621;28;20056;-75
2022/04/07 08:46:39;;;;;;;6.70;0.60;;;8.80;99.90;;;;;;5091536;28;20043;-76
2022/04/07 08:49:07;;;;;;;5.35;0.90;;;9.00;99.90;;;;;;5091300;28;20117;-76
2022/04/07 08:51:33;;;;;;;3.55;0.50;;;9.10;99.90;;;;;;5091767;28;20048;-76
2022/04/07 08:54:00;;;;;;;3.22;0.57;;;9.20;99.90;;;;;;5090929;28;20172;-75
2022/04/07 08:56:26;;;;;;;5.97;0.60;;;9.40;99.90;;;;;;5091458;28;20040;-76
2022/04/07 08:58:55;;;;;;;7.80;1.02;;;9.60;99.90;;;;;;5072831;28;20042;-75
2022/04/07 09:01:21;;;;;;;4.63;0.43;;;9.80;99.90;;;;;;5091621;28;20402;-73
2022/04/07 09:03:46;;;;;;;3.10;0.63;;;9.80;99.90;;;;;;5072974;28;20032;-76
2022/04/07 09:06:18;;;;;;;5.35;0.77;;;10.00;99.90;;;;;;5091473;28;20040;-75
2022/04/07 09:08:44;;;;;;;9.95;0.65;;;10.00;99.90;;;;;;5073823;28;20048;-75
2022/04/07 09:11:10;;;;;;;7.28;1.02;;;10.00;99.90;;;;;;5090123;28;20192;-76
2022/04/07 09:13:41;;;;;;;3.08;0.47;;;10.00;99.90;;;;;;5091127;28;20054;-75
2022/04/07 09:16:12;;;;;;;4.45;0.50;;;10.00;99.90;;;;;;5072853;28;20047;-76
2022/04/07 09:18:38;;;;;;;4.80;0.88;;;10.00;99.90;;;;;;5091327;28;20048;-75
2022/04/07 09:21:05;;;;;;;4.22;1.15;;;10.10;99.90;;;;;;5072521;28;20040;-75
2022/04/07 09:23:42;;;;;;;4.40;0.82;;;10.10;99.90;;;;;;5090504;28;20047;-76
2022/04/07 09:26:12;;;;;;;3.95;0.65;;;10.80;99.90;;;;;;5091322;28;20400;-75
2022/04/07 09:28:38;;;;;;;5.82;0.90;;;10.20;99.90;;;;;;5090219;28;20055;-75
2022/04/07 09:31:04;;;;;;;3.75;0.55;;;10.50;99.90;;;;;;5090975;28;20052;-74
2022/04/07 09:33:30;;;;;;;15.20;1.38;;;10.70;99.90;;;;;;5090315;28;20055;-75
2022/04/07 09:36:05;;;;;;;7.70;0.75;;;10.70;99.90;;;;;;5090698;28;20040;-76
2022/04/07 09:38:33;;;;;;;9.25;1.05;;;10.70;99.90;;;;;;5090700;28;20059;-76
2022/04/07 09:41:10;;;;;;;4.25;0.73;;;10.80;99.90;;;;;;5090119;28;20155;-76
2022/04/07 09:43:47;;;;;;;5.20;0.70;;;10.90;99.90;;;;;;5090460;28;20473;-75
2022/04/07 09:46:20;;;;;;;4.00;0.80;;;10.90;99.90;;;;;;5090190;28;20052;-75
2022/04/07 09:49:07;;;;;;;7.78;1.52;;;10.80;99.90;;;;;;5090147;28;20525;-75
2022/04/07 09:51:50;;;;;;;5.00;0.85;;;10.80;99.90;;;;;;5090057;28;20054;-75
2022/04/07 09:54:17;;;;;;;7.65;0.80;;;10.80;99.90;;;;;;5089626;28;20494;-77
2022/04/07 09:56:45;;;;;;;10.13;0.73;;;10.70;99.90;;;;;;5072183;28;20499;-77
2022/04/07 09:59:16;;;;;;;10.60;1.20;;;10.60;99.90;;;;;;5090119;28;20124;-78
2022/04/07 10:01:43;;;;;;;4.88;0.65;;;10.50;99.90;;;;;;5090160;28;20074;-79
2022/04/07 10:04:09;;;;;;;9.30;1.40;;;10.30;99.90;;;;;;5090062;28;20040;-79
2022/04/07 10:06:37;;;;;;;8.48;1.13;;;10.10;99.90;;;;;;5089630;28;20119;-79
2022/04/07 10:09:07;;;;;;;6.38;1.20;;;9.90;99.90;;;;;;5071180;28;20101;-79
2022/04/07 10:11:33;;;;;;;12.23;1.60;;;9.60;99.90;;;;;;5050246;28;20063;-79
2022/04/07 10:14:00;;;;;;;4.85;0.93;;;9.90;99.90;;;;;;5068522;28;20159;-78
2022/04/07 10:16:26;;;;;;;10.27;1.25;;;9.00;99.90;;;;;;5068365;28;20051;-77
2022/04/07 10:19:42;;;;;;;9.27;1.02;;;9.10;99.90;;;;;;5068790;28;20359;-79
2022/04/07 10:22:39;;;;;;;6.90;1.10;;;9.40;99.90;;;;;;5062728;28;20044;-78
2022/04/07 10:25:06;;;;;;;10.35;1.55;;;9.60;99.90;;;;;;5067344;28;20071;-78
2022/04/07 10:27:54;;;;;;;4.78;0.88;;;9.70;99.90;;;;;;5068380;28;20044;-77
2022/04/07 10:30:21;;;;;;;5.55;0.57;;;9.70;99.90;;;;;;5067888;28;20040;-77
2022/04/07 10:32:54;;;;;;;6.32;0.75;;;9.30;99.90;;;;;;5067677;28;20047;-77
2022/04/07 10:35:33;;;;;;;6.38;0.60;;;8.90;99.90;;;;;;5068286;28;20373;-76
2022/04/07 10:38:01;;;;;;;3.75;0.60;;;8.50;99.90;;;;;;5067091;28;20356;-77
2022/04/07 10:40:37;;;;;;;4.95;0.60;;;8.30;99.90;;;;;;5066818;28;20392;-78
2022/04/07 10:43:10;;;;;;;5.78;1.05;;;8.30;99.90;;;;;;5067860;28;20044;-76
2022/04/07 10:45:47;;;;;;;7.43;0.80;;;8.50;99.90;;;;;;5066362;28;20123;-77
2022/04/07 10:48:16;;;;;;;4.00;1.30;;;8.80;99.90;;;;;;5067968;28;20047;-76
2022/04/07 10:50:48;;;;;;;9.77;1.10;;;8.90;99.90;;;;;;5067656;28;20114;-76
2022/04/07 10:53:25;;;;;;;10.77;1.63;;;9.00;99.90;;;;;;5066480;28;20094;-76
2022/04/07 10:55:54;;;;;;;5.28;1.17;;;7.90;99.90;;;;;;5067231;28;20531;-76
2022/04/07 10:58:20;;;;;;;7.72;1.50;;;9.10;99.90;;;;;;5067902;28;20386;-76
2022/04/07 11:00:46;;;;;;;11.65;1.45;;;9.10;99.90;;;;;;5066287;28;20047;-76
2022/04/07 11:03:16;;;;;;;12.10;1.45;;;9.20;99.90;;;;;;5049416;28;20041;-77
2022/04/07 11:06:10;;;;;;;11.77;1.23;;;9.20;99.90;;;;;;5065983;28;20529;-76
2022/04/07 11:08:36;;;;;;;15.07;1.52;;;9.80;99.90;;;;;;5048479;28;20056;-77
2022/04/07 11:11:02;;;;;;;8.55;0.88;;;9.50;99.90;;;;;;5048871;28;20507;-77
2022/04/07 11:13:45;;;;;;;13.05;1.98;;;9.60;99.90;;;;;;5016100;28;20051;-77
2022/04/07 11:16:25;;;;;;;12.77;1.20;;;9.70;99.90;;;;;;5050379;28;20059;-77
2022/04/07 11:19:25;;;;;;;7.75;0.95;;;9.70;99.90;;;;;;5065984;28;20105;-77
2022/04/07 11:21:52;;;;;;;9.63;1.98;;;9.80;99.90;;;;;;5065791;28;20053;-77
2022/04/07 11:24:26;;;;;;;12.18;1.55;;;9.80;99.90;;;;;;5066345;28;20693;-77
2022/04/07 11:26:53;;;;;;;11.93;1.60;;;9.80;99.90;;;;;;5065941;28;20484;-77
2022/04/07 11:29:37;;;;;;;8.52;1.00;;;9.90;99.90;;;;;;5065588;28;20052;-76
2022/04/07 11:32:07;;;;;;;8.93;1.60;;;9.90;99.90;;;;;;5065672;28;20044;-76
2022/04/07 11:34:36;;;;;;;10.18;1.08;;;10.00;99.90;;;;;;5065840;28;20053;-76
2022/04/07 11:37:14;;;;;;;16.63;1.85;;;10.00;99.90;;;;;;5066163;28;20048;-76
2022/04/07 11:39:53;;;;;;;9.15;1.73;;;10.00;99.90;;;;;;5049585;28;20041;-77
2022/04/07 11:42:20;;;;;;;10.80;1.75;;;10.10;99.90;;;;;;5067712;28;20106;-76
2022/04/07 11:44:47;;;;;;;13.13;2.40;;;10.10;99.90;;;;;;5071493;28;20102;-76
2022/04/07 11:47:24;;;;;;;13.77;1.95;;;10.20;99.90;;;;;;5069685;28;20055;-76
2022/04/07 11:49:50;;;;;;;13.75;1.30;;;10.20;99.90;;;;;;5071231;28;20087;-76
2022/04/07 11:52:16;;;;;;;16.38;1.30;;;10.20;99.90;;;;;;5070072;28;20130;-77
2022/04/07 11:54:42;;;;;;;12.15;1.50;;;10.10;99.90;;;;;;5071248;28;20044;-76
2022/04/07 11:57:10;;;;;;;9.48;1.25;;;10.10;99.90;;;;;;5052875;28;20048;-78
2022/04/07 11:59:37;;;;;;;10.02;1.58;;;10.10;99.90;;;;;;5053026;28;20102;-77
2022/04/07 12:02:03;;;;;;;8.95;1.52;;;10.10;99.90;;;;;;5069908;28;20044;-77
2022/04/07 12:04:34;;;;;;;6.75;1.25;;;10.10;99.90;;;;;;5070041;28;20098;-77
2022/04/07 12:07:01;;;;;;;8.23;1.42;;;10.70;99.90;;;;;;5071643;28;20045;-76
2022/04/07 12:09:26;;;;;;;7.85;1.17;;;10.10;99.90;;;;;;5069715;28;20048;-76
2022/04/07 12:11:53;;;;;;;12.63;1.33;;;10.30;99.90;;;;;;5072824;28;20051;-76
2022/04/07 12:14:24;;;;;;;9.55;1.25;;;10.40;99.90;;;;;;5091180;28;20048;-78
2022/04/07 12:16:51;;;;;;;8.65;0.85;;;10.50;99.90;;;;;;5072447;28;20032;-76
2022/04/07 12:19:18;;;;;;;8.20;1.58;;;10.70;99.90;;;;;;5072154;28;20048;-75
2022/04/07 12:21:55;;;;;;;10.43;1.60;;;10.80;99.90;;;;;;5072156;28;20064;-76
2022/04/07 12:24:21;;;;;;;9.52;1.23;;;10.90;99.90;;;;;;5091096;28;20044;-77
2022/04/07 12:26:50;;;;;;;10.60;1.48;;;10.80;99.90;;;;;;5091002;28;20040;-76
2022/04/07 12:29:18;;;;;;;8.45;1.42;;;10.70;99.90;;;;;;5090571;28;20047;-77
2022/04/07 12:31:44;;;;;;;4.05;0.80;;;10.40;99.90;;;;;;5090695;28;20055;-78
2022/04/07 12:34:17;;;;;;;4.03;0.60;;;10.10;99.90;;;;;;5072457;28;20036;-77
2022/04/07 12:36:44;;;;;;;3.95;0.45;;;9.70;99.90;;;;;;5090513;28;20051;-78
2022/04/07 12:39:15;;;;;;;3.28;0.50;;;9.10;99.90;;;;;;5090447;28;20044;-76
2022/04/07 12:41:50;;;;;;;2.85;0.77;;;8.60;99.90;;;;;;5090735;28;20185;-77
2022/04/07 12:44:33;;;;;;;4.82;0.70;;;8.40;99.90;;;;;;5090600;28;20141;-76
2022/04/07 12:47:04;;;;;;;8.23;1.13;;;8.40;99.90;;;;;;5090487;28;20048;-76
2022/04/07 12:49:33;;;;;;;7.75;1.02;;;8.70;99.90;;;;;;5071805;28;20040;-76
2022/04/07 12:52:11;;;;;;;6.75;1.15;;;9.40;99.90;;;;;;5090343;28;20398;-76
2022/04/07 12:54:53;;;;;;;11.60;1.77;;;9.30;99.90;;;;;;5071890;28;20391;-76
2022/04/07 12:57:19;;;;;;;8.60;1.67;;;9.70;99.90;;;;;;5072273;28;20039;-77
2022/04/07 12:59:56;;;;;;;10.80;1.10;;;10.10;99.90;;;;;;5038309;28;20411;-77
2022/04/07 13:02:23;;;;;;;6.45;1.38;;;10.30;99.90;;;;;;5071899;28;20091;-75
2022/04/07 13:04:53;;;;;;;8.68;1.55;;;10.30;99.90;;;;;;5071435;28;20044;-75